Peotone Weather

Nearby METAR Reports

 

KIGQ - Lansing, Illinois, USA
Distance from station: NE 19mi, 30km
Updated: Wed, 26-Apr-2017 8:15pm CDT
Partly cloudy
Partly cloudy
 Wind from W
Wind: W 7 mph , 11 km/h
Temperature: 68°F , 20°C
Dew Point: 59°F , 15°C
Humidity: 73%
Barometer: 29.46 inHg , 997.6 hPa
Clouds: Partly cloudy
Visibility: 10 miles , 16 km
Cloud details: Partly cloudy 10000 ft
2017/04/27 01:15 KIGQ 270115Z AUTO 26006KT 10SM SCT100 20/15 A2946 RMK AO2 T01990145
KIKK - Kankakee, Illinois, USA
Distance from station: S 19mi, 30km
Updated: Wed, 26-Apr-2017 8:15pm CDT
Light rain, Overcast
Light rain, Overcast
 Wind from SW
Wind: SW 6 mph , 9 km/h
Temperature: 64°F , 18°C
Dew Point: 57°F , 14°C
Humidity: 78%
Barometer: 29.49 inHg , 998.6 hPa
Summary: Light rain
Clouds: Overcast
Visibility: 10 miles , 16 km
Cloud details: Overcast 10000 ft
2017/04/27 01:15 KIKK 270115Z AUTO 23005KT 10SM -RA OVC100 18/14 A2949 RMK AO2 LTG DSNT S T01780140
 
KSJC - Joliet, Illinois, USA
Distance from station: WNW 24mi, 38km
Updated: Wed, 26-Apr-2017 7:53pm CDT
Mostly cloudy
Mostly cloudy
 Wind from WNW
Wind: WNW 18 mph , 30 km/h
Temperature: 63°F , 17°C
Dew Point: 55°F , 13°C
Humidity: 77%
Barometer: 30.03 inHg , 1016.9 hPa
Clouds: Mostly cloudy
Visibility: 10 miles , 16 km
Cloud details: Few Clouds 800 ft
Partly cloudy 2800 ft
Mostly cloudy 18000 ft
2017/04/27 00:53 KSJC 270053Z 30016KT 10SM FEW008 SCT028 BKN180 17/13 A3003 RMK AO2 SLP169 T01720128
KLOT - Romeoville, Illinois, USA
Distance from station: NW 26mi, 41km
Updated: Wed, 26-Apr-2017 8:15pm CDT
Overcast
Overcast
 Wind from NNW
Wind: NNW 5 mph , 7 km/h
Temperature: 63°F , 17°C
Dew Point: 59°F , 15°C
Humidity: 88%
Barometer: 29.47 inHg , 998 hPa
Clouds: Overcast
Visibility: 10 miles , 16 km
Cloud details: Mostly cloudy 8000 ft
Mostly cloudy 9500 ft
Overcast 12000 ft
2017/04/27 01:15 KLOT 270115Z AUTO 33004KT 10SM BKN080 BKN095 OVC120 17/15 A2947 RMK AO2 T01670152
 
KMDW - Midway Airport Chicago, Illinois, USA
Distance from station: N 31mi, 50km
Updated: Wed, 26-Apr-2017 7:53pm CDT
Mostly cloudy
Mostly cloudy
 Wind from W
Wind: W 9 mph , 15 km/h
Temperature: 68°F , 20°C
Dew Point: 57°F , 14°C
Humidity: 69%
Barometer: 29.46 inHg , 997.6 hPa
Clouds: Mostly cloudy
Visibility: 10 miles , 16 km
Cloud details: Few Clouds 9000 ft
Partly cloudy 11000 ft
Mostly cloudy 17000 ft
Mostly cloudy 25000 ft
2017/04/27 00:53 KMDW 270053Z 28008KT 10SM FEW090 SCT110 BKN170 BKN250 20/14 A2946 RMK AO2 SLP969 T02000139 $
KC09 - Morris, Illinois, USA
Distance from station: W 34mi, 54km
Updated: Wed, 26-Apr-2017 8:15pm CDT
Overcast
Overcast
 Wind from calm
Wind: Calm
Temperature: 61°F , 16°C
Dew Point: 55°F , 13°C
Humidity: 83%
Barometer: 29.46 inHg , 997.6 hPa
Clouds: Overcast
Visibility: 10 miles , 16 km
Cloud details: Mostly cloudy 7000 ft
Overcast 8000 ft
2017/04/27 01:15 KC09 270115Z AUTO 00000KT 10SM BKN070 OVC080 16/13 A2946 RMK AO2 T01600132

Metar display script from Saratoga-Weather.org